Time,TemperatureF,DewpointF,PressureIn,WindDirection,WindDirectionDegrees,WindSpeedMPH,WindSpeedGustMPH,Humidity,HourlyPrecipIn,Conditions,Clouds,dailyrainin,SoftwareType,DateUTC
2013-02-27 00:10:00,27.5,26.0,30.26,ESE,121,0.0,1.0,95,0.00,,,0.00,weatherlink.com 1.10,2013-02-27 05:10:00,
2013-02-27 00:25:00,27.5,26.0,30.25,SE,124,1.0,1.0,95,0.00,,,0.00,weatherlink.com 1.10,2013-02-27 05:25:00,
2013-02-27 00:40:00,29.2,28.0,30.25,SE,132,2.0,3.0,95,0.00,,,0.00,weatherlink.com 1.10,2013-02-27 05:40:00,
2013-02-27 00:55:00,29.9,28.0,30.25,SE,129,0.0,2.0,93,0.00,,,0.00,weatherlink.com 1.10,2013-02-27 05:55:00,
2013-02-27 01:10:00,29.7,28.0,30.24,SE,128,0.0,1.0,92,0.00,,,0.00,weatherlink.com 1.10,2013-02-27 06:10:00,
2013-02-27 01:25:00,29.3,27.0,30.24,SE,129,0.0,0.0,92,0.00,,,0.00,weatherlink.com 1.10,2013-02-27 06:25:00,
2013-02-27 01:40:00,30.1,28.0,30.24,SE,132,1.0,3.0,92,0.00,,,0.00,weatherlink.com 1.10,2013-02-27 06:40:00,
2013-02-27 01:55:00,30.3,28.0,30.24,SE,127,0.0,2.0,91,0.00,,,0.00,weatherlink.com 1.10,2013-02-27 06:55:00,
2013-02-27 02:10:00,30.1,28.0,30.23,SE,124,1.0,-999.0,91,-99.99,,,0.00,weatherlink.com 1.10,2013-02-27 07:10:00,
2013-02-27 02:25:00,30.1,28.0,30.22,SE,127,1.0,3.0,91,0.00,,,0.00,weatherlink.com 1.10,2013-02-27 07:25:00,
2013-02-27 02:40:00,30.1,28.0,30.20,SE,135,1.0,3.0,91,0.00,,,0.00,weatherlink.com 1.10,2013-02-27 07:40:00,
2013-02-27 02:55:00,30.1,28.0,30.19,SE,129,2.0,3.0,92,0.00,,,0.00,weatherlink.com 1.10,2013-02-27 07:55:00,
2013-02-27 03:10:00,30.5,29.0,30.19,SE,128,2.0,2.0,92,0.00,,,0.00,weatherlink.com 1.10,2013-02-27 08:10:00,
2013-02-27 03:25:00,30.6,29.0,30.19,SE,124,0.0,2.0,92,0.00,,,0.00,weatherlink.com 1.10,2013-02-27 08:25:00,
2013-02-27 03:40:00,30.5,29.0,30.19,ESE,119,1.0,1.0,92,0.00,,,0.00,weatherlink.com 1.10,2013-02-27 08:40:00,
2013-02-27 03:55:00,30.7,29.0,30.20,ESE,119,1.0,1.0,92,0.00,,,0.00,weatherlink.com 1.10,2013-02-27 08:55:00,
2013-02-27 04:11:00,30.9,29.0,30.20,ESE,117,1.0,2.0,92,0.00,,,0.00,weatherlink.com 1.10,2013-02-27 09:11:00,
2013-02-27 04:26:00,31.1,29.0,30.19,ESE,121,1.0,1.0,92,0.00,,,0.00,weatherlink.com 1.10,2013-02-27 09:26:00,
2013-02-27 04:42:00,31.7,30.0,30.19,SE,137,1.0,2.0,92,0.00,,,0.00,weatherlink.com 1.10,2013-02-27 09:42:00,
2013-02-27 04:56:00,32.1,30.0,30.20,ESE,121,1.0,1.0,92,0.00,,,0.00,weatherlink.com 1.10,2013-02-27 09:56:00,
2013-02-27 05:11:00,32.3,30.0,30.19,SE,131,2.0,3.0,92,0.00,,,0.00,weatherlink.com 1.10,2013-02-27 10:11:00,
2013-02-27 05:26:00,32.7,31.0,30.19,SE,136,1.0,3.0,92,0.00,,,0.00,weatherlink.com 1.10,2013-02-27 10:26:00,
2013-02-27 05:41:00,33.1,31.0,30.19,SE,135,0.0,4.0,92,0.00,,,0.00,weatherlink.com 1.10,2013-02-27 10:41:00,
2013-02-27 05:56:00,33.1,31.0,30.19,SSE,152,1.0,4.0,93,0.00,,,0.00,weatherlink.com 1.10,2013-02-27 10:56:00,
2013-02-27 06:11:00,33.2,32.0,30.18,SSE,151,1.0,2.0,94,0.00,,,0.00,weatherlink.com 1.10,2013-02-27 11:11:00,
2013-02-27 06:26:00,33.3,32.0,30.18,SE,144,2.0,3.0,94,0.00,,,0.00,weatherlink.com 1.10,2013-02-27 11:26:00,
2013-02-27 06:41:00,33.5,32.0,30.17,SSE,149,3.0,5.0,94,0.00,,,0.00,weatherlink.com 1.10,2013-02-27 11:41:00,
2013-02-27 06:56:00,33.6,32.0,30.17,SSE,148,2.0,5.0,94,0.00,,,0.00,weatherlink.com 1.10,2013-02-27 11:56:00,
2013-02-27 07:26:00,34.0,32.0,30.16,SSE,163,1.0,3.0,93,0.00,,,0.00,weatherlink.com 1.10,2013-02-27 12:26:00,
2013-02-27 07:41:00,34.5,33.0,30.15,SSE,167,3.0,5.0,93,0.00,,,0.00,weatherlink.com 1.10,2013-02-27 12:41:00,
2013-02-27 07:56:00,35.4,33.0,30.15,SW,218,2.0,7.0,91,0.01,,,0.01,weatherlink.com 1.10,2013-02-27 12:56:00,
2013-02-27 08:11:00,35.8,33.0,30.14,South,181,3.0,9.0,89,0.01,,,0.01,weatherlink.com 1.10,2013-02-27 13:11:00,
2013-02-27 08:26:00,36.2,33.0,30.14,SSE,149,2.0,10.0,88,0.01,,,0.01,weatherlink.com 1.10,2013-02-27 13:26:00,
2013-02-27 08:41:00,36.6,33.0,30.13,SE,138,6.0,12.0,87,0.01,,,0.01,weatherlink.com 1.10,2013-02-27 13:41:00,
2013-02-27 08:56:00,36.8,33.0,30.12,SE,145,4.0,11.0,87,0.00,,,0.01,weatherlink.com 1.10,2013-02-27 13:56:00,
2013-02-27 09:11:00,37.2,33.0,30.12,SE,131,3.0,10.0,86,0.00,,,0.01,weatherlink.com 1.10,2013-02-27 14:11:00,
2013-02-27 09:26:00,37.7,33.0,30.11,South,170,7.0,11.0,83,0.00,,,0.01,weatherlink.com 1.10,2013-02-27 14:26:00,
2013-02-27 09:41:00,37.9,33.0,30.09,South,186,7.0,12.0,82,0.00,,,0.01,weatherlink.com 1.10,2013-02-27 14:41:00,
2013-02-27 09:56:00,38.0,32.0,30.09,SSW,198,7.0,12.0,80,0.00,,,0.01,weatherlink.com 1.10,2013-02-27 14:56:00,
2013-02-27 10:11:00,38.1,32.0,30.09,SSE,153,3.0,12.0,80,0.00,,,0.01,weatherlink.com 1.10,2013-02-27 15:11:00,
2013-02-27 10:26:00,38.1,32.0,30.09,ESE,115,5.0,14.0,80,0.00,,,0.01,weatherlink.com 1.10,2013-02-27 15:26:00,
2013-02-27 10:41:00,38.2,33.0,30.08,SSE,167,6.0,13.0,80,0.00,,,0.01,weatherlink.com 1.10,2013-02-27 15:41:00,
2013-02-27 10:56:00,38.4,32.0,30.07,SSE,150,3.0,15.0,79,0.00,,,0.01,weatherlink.com 1.10,2013-02-27 15:56:00,
2013-02-27 11:11:00,38.6,32.0,30.07,ESE,119,4.0,15.0,78,0.00,,,0.01,weatherlink.com 1.10,2013-02-27 16:11:00,
2013-02-27 11:26:00,38.7,32.0,30.07,SE,133,7.0,14.0,77,0.00,,,0.01,weatherlink.com 1.10,2013-02-27 16:26:00,
2013-02-27 11:42:00,38.8,32.0,30.06,SE,143,7.0,14.0,77,0.00,,,0.01,weatherlink.com 1.10,2013-02-27 16:42:00,
2013-02-27 11:57:00,38.7,32.0,30.04,SE,124,5.0,13.0,77,0.00,,,0.01,weatherlink.com 1.10,2013-02-27 16:57:00,
2013-02-27 12:12:00,38.6,31.0,30.04,SSE,163,8.0,17.0,75,0.00,,,0.01,weatherlink.com 1.10,2013-02-27 17:12:00,
2013-02-27 12:27:00,38.6,31.0,30.02,SSE,168,7.0,12.0,74,0.00,,,0.01,weatherlink.com 1.10,2013-02-27 17:27:00,
2013-02-27 12:42:00,38.5,31.0,30.02,SE,141,6.0,13.0,75,0.00,,,0.01,weatherlink.com 1.10,2013-02-27 17:42:00,
2013-02-27 12:57:00,38.4,31.0,30.01,South,169,10.0,17.0,75,0.00,,,0.01,weatherlink.com 1.10,2013-02-27 17:57:00,
2013-02-27 13:12:00,38.3,31.0,30.01,SSE,148,4.0,13.0,75,0.00,,,0.01,weatherlink.com 1.10,2013-02-27 18:12:00,
2013-02-27 13:27:00,38.3,31.0,30.00,SSE,148,5.0,13.0,75,0.00,,,0.01,weatherlink.com 1.10,2013-02-27 18:27:00,
2013-02-27 13:42:00,38.3,31.0,30.00,SSE,153,7.0,17.0,75,0.00,,,0.01,weatherlink.com 1.10,2013-02-27 18:42:00,
2013-02-27 13:57:00,38.3,31.0,30.00,SSW,204,5.0,15.0,74,0.00,,,0.01,weatherlink.com 1.10,2013-02-27 18:57:00,
2013-02-27 14:12:00,38.3,31.0,30.00,SSE,160,6.0,19.0,75,0.00,,,0.01,weatherlink.com 1.10,2013-02-27 19:12:00,
2013-02-27 14:27:00,38.0,31.0,29.99,SSE,152,8.0,18.0,77,0.00,,,0.01,weatherlink.com 1.10,2013-02-27 19:27:00,
2013-02-27 14:42:00,37.5,32.0,29.97,SSE,152,6.0,19.0,79,0.00,,,0.01,weatherlink.com 1.10,2013-02-27 19:42:00,
2013-02-27 14:57:00,37.2,31.0,29.96,SE,142,6.0,17.0,79,0.00,,,0.01,weatherlink.com 1.10,2013-02-27 19:57:00,
2013-02-27 15:12:00,37.2,31.0,29.95,SE,127,11.0,13.0,79,0.00,,,0.01,weatherlink.com 1.10,2013-02-27 20:12:00,
2013-02-27 15:27:00,37.0,31.0,29.95,SE,131,6.0,17.0,78,0.00,,,0.01,weatherlink.com 1.10,2013-02-27 20:27:00,
2013-02-27 15:42:00,37.0,30.0,29.96,SSW,203,7.0,15.0,77,0.00,,,0.01,weatherlink.com 1.10,2013-02-27 20:42:00,
2013-02-27 15:57:00,36.5,30.0,29.95,SE,134,5.0,25.0,78,0.00,,,0.01,weatherlink.com 1.10,2013-02-27 20:57:00,
2013-02-27 16:12:00,34.6,31.0,29.95,SSE,149,11.0,29.0,85,0.00,,,0.01,weatherlink.com 1.10,2013-02-27 21:12:00,
2013-02-27 16:28:00,32.6,31.0,29.94,SE,136,9.0,24.0,93,0.00,,,0.01,weatherlink.com 1.10,2013-02-27 21:28:00,
2013-02-27 16:42:00,32.3,31.0,29.93,SSE,155,7.0,12.0,94,0.00,,,0.01,weatherlink.com 1.10,2013-02-27 21:42:00,
2013-02-27 16:57:00,32.2,31.0,29.92,ESE,102,6.0,12.0,95,0.00,,,0.01,weatherlink.com 1.10,2013-02-27 21:57:00,
2013-02-27 17:12:00,32.2,31.0,29.93,SSE,162,5.0,11.0,95,0.00,,,0.01,weatherlink.com 1.10,2013-02-27 22:12:00,
2013-02-27 17:27:00,32.2,31.0,29.93,South,181,13.0,13.0,96,0.00,,,0.01,weatherlink.com 1.10,2013-02-27 22:27:00,
2013-02-27 17:42:00,32.2,31.0,29.91,SE,132,8.0,11.0,96,0.00,,,0.01,weatherlink.com 1.10,2013-02-27 22:42:00,
2013-02-27 17:57:00,32.1,31.0,29.92,SE,146,9.0,15.0,96,0.00,,,0.01,weatherlink.com 1.10,2013-02-27 22:57:00,
2013-02-27 18:12:00,32.0,31.0,29.91,SSE,158,7.0,12.0,96,0.00,,,0.01,weatherlink.com 1.10,2013-02-27 23:12:00,
2013-02-27 18:27:00,31.9,31.0,29.91,SSE,165,5.0,13.0,96,0.00,,,0.01,weatherlink.com 1.10,2013-02-27 23:27:00,
2013-02-27 18:42:00,31.8,31.0,29.90,SE,127,7.0,13.0,96,0.00,,,0.01,weatherlink.com 1.10,2013-02-27 23:42:00,
2013-02-27 18:57:00,31.7,31.0,29.89,SSE,156,9.0,12.0,96,0.00,,,0.01,weatherlink.com 1.10,2013-02-27 23:57:00,
2013-02-27 19:12:00,31.6,31.0,29.87,ESE,123,8.0,11.0,96,0.00,,,0.01,weatherlink.com 1.10,2013-02-28 00:12:00,
2013-02-27 19:27:00,31.4,30.0,29.85,South,174,7.0,11.0,96,0.00,,,0.01,weatherlink.com 1.10,2013-02-28 00:27:00,
2013-02-27 19:42:00,31.3,30.0,29.85,SSE,167,9.0,11.0,96,0.00,,,0.01,weatherlink.com 1.10,2013-02-28 00:42:00,
2013-02-27 19:58:00,31.5,31.0,29.84,SE,141,8.0,11.0,97,0.00,,,0.01,weatherlink.com 1.10,2013-02-28 00:58:00,
2013-02-27 20:13:00,31.5,31.0,29.82,South,183,6.0,12.0,97,0.00,,,0.01,weatherlink.com 1.10,2013-02-28 01:13:00,
2013-02-27 20:28:00,31.4,31.0,29.81,SSE,154,6.0,11.0,97,0.00,,,0.01,weatherlink.com 1.10,2013-02-28 01:28:00,
2013-02-27 20:43:00,31.5,31.0,29.80,SSE,150,7.0,11.0,97,0.00,,,0.01,weatherlink.com 1.10,2013-02-28 01:43:00,
2013-02-27 20:58:00,31.6,31.0,29.79,SSE,152,6.0,11.0,97,0.00,,,0.01,weatherlink.com 1.10,2013-02-28 01:58:00,
2013-02-27 21:13:00,31.8,31.0,29.78,ESE,120,6.0,13.0,97,0.00,,,0.01,weatherlink.com 1.10,2013-02-28 02:13:00,
2013-02-27 21:28:00,32.0,31.0,29.76,SSE,162,7.0,12.0,97,0.00,,,0.01,weatherlink.com 1.10,2013-02-28 02:28:00,
2013-02-27 21:43:00,32.1,31.0,29.74,SSE,150,10.0,11.0,97,0.00,,,0.01,weatherlink.com 1.10,2013-02-28 02:43:00,
2013-02-27 21:58:00,32.2,32.0,29.72,SE,136,8.0,12.0,97,0.00,,,0.01,weatherlink.com 1.10,2013-02-28 02:58:00,
2013-02-27 22:13:00,32.3,32.0,29.72,SSE,162,6.0,12.0,97,0.00,,,0.01,weatherlink.com 1.10,2013-02-28 03:13:00,
2013-02-27 22:28:00,32.6,32.0,29.70,SE,142,8.0,10.0,97,0.00,,,0.01,weatherlink.com 1.10,2013-02-28 03:28:00,
2013-02-27 22:43:00,32.8,32.0,29.70,SSE,151,5.0,13.0,97,0.02,,,0.03,weatherlink.com 1.10,2013-02-28 03:43:00,
2013-02-27 22:58:00,33.0,32.0,29.71,South,173,9.0,13.0,97,0.05,,,0.06,weatherlink.com 1.10,2013-02-28 03:58:00,
2013-02-27 23:28:00,33.6,33.0,29.70,SSE,158,9.0,13.0,97,0.05,,,0.06,weatherlink.com 1.10,2013-02-28 04:28:00,
2013-02-27 23:43:00,33.9,33.0,29.69,SE,137,5.0,13.0,97,0.03,,,0.06,weatherlink.com 1.10,2013-02-28 04:43:00,